sensor_id;sensor_type;location;lat;lon;timestamp;temperature;humidity
6986;DHT22;3533;51.246;6.850;2023-04-24T00:02:23;19.30;47.20
6986;DHT22;3533;51.246;6.850;2023-04-24T00:04:49;19.30;47.20
6986;DHT22;3533;51.246;6.850;2023-04-24T00:07:15;19.30;47.20
6986;DHT22;3533;51.246;6.850;2023-04-24T00:09:45;19.30;47.20
6986;DHT22;3533;51.246;6.850;2023-04-24T00:12:10;19.30;47.20
6986;DHT22;3533;51.246;6.850;2023-04-24T00:14:36;19.30;47.20
6986;DHT22;3533;51.246;6.850;2023-04-24T00:17:02;19.30;47.20
6986;DHT22;3533;51.246;6.850;2023-04-24T00:19:28;19.30;47.20
6986;DHT22;3533;51.246;6.850;2023-04-24T00:21:53;19.30;47.20
6986;DHT22;3533;51.246;6.850;2023-04-24T00:24:19;19.30;47.20
6986;DHT22;3533;51.246;6.850;2023-04-24T00:26:45;19.30;47.20
6986;DHT22;3533;51.246;6.850;2023-04-24T00:29:10;19.30;47.20
6986;DHT22;3533;51.246;6.850;2023-04-24T00:31:36;19.30;47.20
6986;DHT22;3533;51.246;6.850;2023-04-24T00:34:02;19.30;47.20
6986;DHT22;3533;51.246;6.850;2023-04-24T00:36:28;19.30;47.20
6986;DHT22;3533;51.246;6.850;2023-04-24T00:38:54;19.30;47.20
6986;DHT22;3533;51.246;6.850;2023-04-24T00:41:20;19.30;47.20
6986;DHT22;3533;51.246;6.850;2023-04-24T00:43:46;19.30;47.30
6986;DHT22;3533;51.246;6.850;2023-04-24T00:46:12;19.30;47.20
6986;DHT22;3533;51.246;6.850;2023-04-24T00:48:39;19.30;47.20
6986;DHT22;3533;51.246;6.850;2023-04-24T00:51:05;19.30;47.20
6986;DHT22;3533;51.246;6.850;2023-04-24T00:53:31;19.30;47.20
6986;DHT22;3533;51.246;6.850;2023-04-24T00:55:57;19.30;47.20
6986;DHT22;3533;51.246;6.850;2023-04-24T00:58:22;19.30;47.30
6986;DHT22;3533;51.246;6.850;2023-04-24T01:00:49;19.20;47.10
6986;DHT22;3533;51.246;6.850;2023-04-24T01:03:16;19.30;47.20
6986;DHT22;3533;51.246;6.850;2023-04-24T01:05:42;19.30;47.30
6986;DHT22;3533;51.246;6.850;2023-04-24T01:08:07;19.30;47.20
6986;DHT22;3533;51.246;6.850;2023-04-24T01:10:34;19.30;47.20
6986;DHT22;3533;51.246;6.850;2023-04-24T01:13:01;19.30;47.20
6986;DHT22;3533;51.246;6.850;2023-04-24T01:15:27;19.30;47.20
6986;DHT22;3533;51.246;6.850;2023-04-24T01:17:52;19.30;47.20
6986;DHT22;3533;51.246;6.850;2023-04-24T01:20:18;19.30;47.20
6986;DHT22;3533;51.246;6.850;2023-04-24T01:22:44;19.30;47.20
6986;DHT22;3533;51.246;6.850;2023-04-24T01:25:10;19.30;47.30
6986;DHT22;3533;51.246;6.850;2023-04-24T01:27:35;19.20;47.10
6986;DHT22;3533;51.246;6.850;2023-04-24T01:30:01;19.30;47.20
6986;DHT22;3533;51.246;6.850;2023-04-24T01:32:27;19.20;47.10
6986;DHT22;3533;51.246;6.850;2023-04-24T01:34:54;19.30;47.30
6986;DHT22;3533;51.246;6.850;2023-04-24T01:37:20;19.30;47.20
6986;DHT22;3533;51.246;6.850;2023-04-24T01:39:46;19.30;47.20
6986;DHT22;3533;51.246;6.850;2023-04-24T01:42:13;19.30;47.20
6986;DHT22;3533;51.246;6.850;2023-04-24T01:44:38;19.30;47.20
6986;DHT22;3533;51.246;6.850;2023-04-24T01:47:05;19.30;47.20
6986;DHT22;3533;51.246;6.850;2023-04-24T01:49:31;19.30;47.30
6986;DHT22;3533;51.246;6.850;2023-04-24T01:51:58;19.20;47.20
6986;DHT22;3533;51.246;6.850;2023-04-24T01:54:23;19.30;47.30
6986;DHT22;3533;51.246;6.850;2023-04-24T01:56:49;19.30;47.20
6986;DHT22;3533;51.246;6.850;2023-04-24T01:59:15;19.30;47.30
6986;DHT22;3533;51.246;6.850;2023-04-24T02:01:42;19.30;47.30
6986;DHT22;3533;51.246;6.850;2023-04-24T02:04:08;19.20;47.20
6986;DHT22;3533;51.246;6.850;2023-04-24T02:06:34;19.20;48.00
6986;DHT22;3533;51.246;6.850;2023-04-24T02:09:00;19.20;47.20
6986;DHT22;3533;51.246;6.850;2023-04-24T02:11:26;19.30;47.30
6986;DHT22;3533;51.246;6.850;2023-04-24T02:13:52;19.20;47.20
6986;DHT22;3533;51.246;6.850;2023-04-24T02:16:20;19.30;47.20
6986;DHT22;3533;51.246;6.850;2023-04-24T02:18:46;19.30;47.20
6986;DHT22;3533;51.246;6.850;2023-04-24T02:21:12;19.30;47.20
6986;DHT22;3533;51.246;6.850;2023-04-24T02:23:37;19.30;47.20
6986;DHT22;3533;51.246;6.850;2023-04-24T02:26:03;19.30;47.30
6986;DHT22;3533;51.246;6.850;2023-04-24T02:28:28;19.30;47.30
6986;DHT22;3533;51.246;6.850;2023-04-24T02:30:54;19.30;47.30
6986;DHT22;3533;51.246;6.850;2023-04-24T02:33:19;19.30;47.30
6986;DHT22;3533;51.246;6.850;2023-04-24T02:35:45;19.30;47.30
6986;DHT22;3533;51.246;6.850;2023-04-24T02:38:10;19.30;47.30
6986;DHT22;3533;51.246;6.850;2023-04-24T02:40:36;19.20;47.20
6986;DHT22;3533;51.246;6.850;2023-04-24T02:43:01;19.30;47.30
6986;DHT22;3533;51.246;6.850;2023-04-24T02:45:27;19.30;47.30
6986;DHT22;3533;51.246;6.850;2023-04-24T02:47:52;19.30;47.30
6986;DHT22;3533;51.246;6.850;2023-04-24T02:50:18;19.20;47.20
6986;DHT22;3533;51.246;6.850;2023-04-24T02:52:43;19.30;47.30
6986;DHT22;3533;51.246;6.850;2023-04-24T02:55:09;19.30;47.30
6986;DHT22;3533;51.246;6.850;2023-04-24T02:57:35;19.20;47.20
6986;DHT22;3533;51.246;6.850;2023-04-24T03:00:00;19.20;47.10
6986;DHT22;3533;51.246;6.850;2023-04-24T03:02:26;19.30;47.30
6986;DHT22;3533;51.246;6.850;2023-04-24T03:04:51;19.30;47.30
6986;DHT22;3533;51.246;6.850;2023-04-24T03:07:17;19.20;47.20
6986;DHT22;3533;51.246;6.850;2023-04-24T03:09:46;19.20;47.20
6986;DHT22;3533;51.246;6.850;2023-04-24T03:12:11;19.30;47.30
6986;DHT22;3533;51.246;6.850;2023-04-24T03:14:37;19.30;47.30
6986;DHT22;3533;51.246;6.850;2023-04-24T03:17:02;19.30;47.30
6986;DHT22;3533;51.246;6.850;2023-04-24T03:19:28;19.30;47.30
6986;DHT22;3533;51.246;6.850;2023-04-24T03:21:53;19.20;47.20
6986;DHT22;3533;51.246;6.850;2023-04-24T03:24:19;19.30;47.30
6986;DHT22;3533;51.246;6.850;2023-04-24T03:26:45;19.30;47.30
6986;DHT22;3533;51.246;6.850;2023-04-24T03:29:11;19.30;47.30
6986;DHT22;3533;51.246;6.850;2023-04-24T03:31:36;19.30;47.30
6986;DHT22;3533;51.246;6.850;2023-04-24T03:34:02;19.20;47.30
6986;DHT22;3533;51.246;6.850;2023-04-24T03:36:27;19.20;47.20
6986;DHT22;3533;51.246;6.850;2023-04-24T03:38:53;19.30;47.30
6986;DHT22;3533;51.246;6.850;2023-04-24T03:41:18;19.20;47.30
6986;DHT22;3533;51.246;6.850;2023-04-24T03:43:44;19.20;47.30
6986;DHT22;3533;51.246;6.850;2023-04-24T03:46:10;19.20;47.20
6986;DHT22;3533;51.246;6.850;2023-04-24T03:48:36;19.30;47.30
6986;DHT22;3533;51.246;6.850;2023-04-24T03:51:01;19.20;47.20
6986;DHT22;3533;51.246;6.850;2023-04-24T03:53:27;19.20;47.20
6986;DHT22;3533;51.246;6.850;2023-04-24T03:55:53;19.30;47.30
6986;DHT22;3533;51.246;6.850;2023-04-24T03:58:18;19.20;47.20
6986;DHT22;3533;51.246;6.850;2023-04-24T04:00:44;19.20;47.30
6986;DHT22;3533;51.246;6.850;2023-04-24T04:03:11;19.20;47.20
6986;DHT22;3533;51.246;6.850;2023-04-24T04:05:38;19.20;47.30
6986;DHT22;3533;51.246;6.850;2023-04-24T04:08:04;19.20;48.00
6986;DHT22;3533;51.246;6.850;2023-04-24T04:10:29;19.20;47.30
6986;DHT22;3533;51.246;6.850;2023-04-24T04:12:54;19.20;47.20
6986;DHT22;3533;51.246;6.850;2023-04-24T04:15:20;19.20;47.20
6986;DHT22;3533;51.246;6.850;2023-04-24T04:17:46;19.20;47.20
6986;DHT22;3533;51.246;6.850;2023-04-24T04:20:12;19.20;47.20
6986;DHT22;3533;51.246;6.850;2023-04-24T04:22:37;19.20;47.20
6986;DHT22;3533;51.246;6.850;2023-04-24T04:25:03;19.20;47.20
6986;DHT22;3533;51.246;6.850;2023-04-24T04:27:30;19.20;48.00
6986;DHT22;3533;51.246;6.850;2023-04-24T04:30:00;19.20;47.30
6986;DHT22;3533;51.246;6.850;2023-04-24T04:32:33;19.20;47.30
6986;DHT22;3533;51.246;6.850;2023-04-24T04:34:59;19.20;47.30
6986;DHT22;3533;51.246;6.850;2023-04-24T04:37:32;19.20;47.30
6986;DHT22;3533;51.246;6.850;2023-04-24T04:40:02;19.20;47.30
6986;DHT22;3533;51.246;6.850;2023-04-24T04:42:32;19.20;47.30
6986;DHT22;3533;51.246;6.850;2023-04-24T04:44:59;19.20;47.30
6986;DHT22;3533;51.246;6.850;2023-04-24T04:47:25;19.20;47.30
6986;DHT22;3533;51.246;6.850;2023-04-24T04:49:51;19.20;47.30
6986;DHT22;3533;51.246;6.850;2023-04-24T04:52:18;19.20;47.20
6986;DHT22;3533;51.246;6.850;2023-04-24T04:54:43;19.20;47.30
6986;DHT22;3533;51.246;6.850;2023-04-24T04:57:10;19.20;47.30
6986;DHT22;3533;51.246;6.850;2023-04-24T04:59:35;19.20;47.30
6986;DHT22;3533;51.246;6.850;2023-04-24T05:02:02;19.20;47.50
6986;DHT22;3533;51.246;6.850;2023-04-24T05:04:27;19.20;47.30
6986;DHT22;3533;51.246;6.850;2023-04-24T05:06:53;19.20;47.30
6986;DHT22;3533;51.246;6.850;2023-04-24T05:09:18;19.20;47.30
6986;DHT22;3533;51.246;6.850;2023-04-24T05:11:44;19.20;47.30
6986;DHT22;3533;51.246;6.850;2023-04-24T05:14:10;19.20;47.20
6986;DHT22;3533;51.246;6.850;2023-04-24T05:16:35;19.20;47.20
6986;DHT22;3533;51.246;6.850;2023-04-24T05:19:02;19.20;47.20
6986;DHT22;3533;51.246;6.850;2023-04-24T05:21:28;19.20;47.30
6986;DHT22;3533;51.246;6.850;2023-04-24T05:23:54;19.20;47.30
6986;DHT22;3533;51.246;6.850;2023-04-24T05:26:20;19.20;47.30
6986;DHT22;3533;51.246;6.850;2023-04-24T05:28:45;19.20;47.30
6986;DHT22;3533;51.246;6.850;2023-04-24T05:31:11;19.20;47.30
6986;DHT22;3533;51.246;6.850;2023-04-24T05:33:37;19.20;47.30
6986;DHT22;3533;51.246;6.850;2023-04-24T05:36:03;19.20;47.00
6986;DHT22;3533;51.246;6.850;2023-04-24T05:38:29;19.20;46.70
6986;DHT22;3533;51.246;6.850;2023-04-24T05:40:54;19.20;46.60
6986;DHT22;3533;51.246;6.850;2023-04-24T05:43:20;19.20;46.60
6986;DHT22;3533;51.246;6.850;2023-04-24T05:45:45;19.20;46.70
6986;DHT22;3533;51.246;6.850;2023-04-24T05:48:11;19.20;46.70
6986;DHT22;3533;51.246;6.850;2023-04-24T05:50:36;19.20;46.80
6986;DHT22;3533;51.246;6.850;2023-04-24T05:53:02;19.20;46.80
6986;DHT22;3533;51.246;6.850;2023-04-24T05:55:29;19.20;46.90
6986;DHT22;3533;51.246;6.850;2023-04-24T05:57:55;19.20;46.90
6986;DHT22;3533;51.246;6.850;2023-04-24T06:00:21;19.20;46.90
6986;DHT22;3533;51.246;6.850;2023-04-24T06:02:47;19.20;46.90
6986;DHT22;3533;51.246;6.850;2023-04-24T06:05:12;19.20;46.90
6986;DHT22;3533;51.246;6.850;2023-04-24T06:07:38;19.20;47.00
6986;DHT22;3533;51.246;6.850;2023-04-24T06:10:03;19.20;47.80
6986;DHT22;3533;51.246;6.850;2023-04-24T06:12:29;19.20;47.00
6986;DHT22;3533;51.246;6.850;2023-04-24T06:14:54;19.20;47.00
6986;DHT22;3533;51.246;6.850;2023-04-24T06:17:21;19.20;47.00
6986;DHT22;3533;51.246;6.850;2023-04-24T06:19:46;19.20;47.00
6986;DHT22;3533;51.246;6.850;2023-04-24T06:22:12;19.20;47.00
6986;DHT22;3533;51.246;6.850;2023-04-24T06:24:39;19.20;47.10
6986;DHT22;3533;51.246;6.850;2023-04-24T06:27:05;19.20;47.00
6986;DHT22;3533;51.246;6.850;2023-04-24T06:29:31;19.20;47.10
6986;DHT22;3533;51.246;6.850;2023-04-24T06:31:56;19.20;47.00
6986;DHT22;3533;51.246;6.850;2023-04-24T06:34:22;19.20;47.10
6986;DHT22;3533;51.246;6.850;2023-04-24T06:36:47;19.20;47.10
6986;DHT22;3533;51.246;6.850;2023-04-24T06:39:13;19.10;47.10
6986;DHT22;3533;51.246;6.850;2023-04-24T06:41:38;19.20;47.10
6986;DHT22;3533;51.246;6.850;2023-04-24T06:44:05;19.20;47.10
6986;DHT22;3533;51.246;6.850;2023-04-24T06:46:30;19.20;47.10
6986;DHT22;3533;51.246;6.850;2023-04-24T06:48:56;19.20;47.10
6986;DHT22;3533;51.246;6.850;2023-04-24T06:51:23;19.20;47.10
6986;DHT22;3533;51.246;6.850;2023-04-24T06:53:49;19.20;47.10
6986;DHT22;3533;51.246;6.850;2023-04-24T06:56:15;19.20;47.10
6986;DHT22;3533;51.246;6.850;2023-04-24T06:58:40;19.10;47.00
6986;DHT22;3533;51.246;6.850;2023-04-24T07:01:06;19.20;47.10
6986;DHT22;3533;51.246;6.850;2023-04-24T07:03:32;19.20;47.10
6986;DHT22;3533;51.246;6.850;2023-04-24T07:05:57;19.20;47.10
6986;DHT22;3533;51.246;6.850;2023-04-24T07:08:23;19.20;47.10
6986;DHT22;3533;51.246;6.850;2023-04-24T07:10:49;19.20;47.10
6986;DHT22;3533;51.246;6.850;2023-04-24T07:13:16;19.20;47.10
6986;DHT22;3533;51.246;6.850;2023-04-24T07:15:42;19.20;47.00
6986;DHT22;3533;51.246;6.850;2023-04-24T07:18:07;19.10;47.00
6986;DHT22;3533;51.246;6.850;2023-04-24T07:20:33;19.20;47.10
6986;DHT22;3533;51.246;6.850;2023-04-24T07:22:59;19.20;47.10
6986;DHT22;3533;51.246;6.850;2023-04-24T07:25:25;19.20;47.10
6986;DHT22;3533;51.246;6.850;2023-04-24T07:27:50;19.20;47.10
6986;DHT22;3533;51.246;6.850;2023-04-24T07:30:16;19.20;47.10
6986;DHT22;3533;51.246;6.850;2023-04-24T07:32:41;19.20;47.10
6986;DHT22;3533;51.246;6.850;2023-04-24T07:35:07;19.10;47.10
6986;DHT22;3533;51.246;6.850;2023-04-24T07:37:35;19.10;47.80
6986;DHT22;3533;51.246;6.850;2023-04-24T07:40:00;19.20;47.10
6986;DHT22;3533;51.246;6.850;2023-04-24T07:42:26;19.10;47.10
6986;DHT22;3533;51.246;6.850;2023-04-24T07:44:51;19.20;47.10
6986;DHT22;3533;51.246;6.850;2023-04-24T07:47:17;19.20;47.10
6986;DHT22;3533;51.246;6.850;2023-04-24T07:49:42;19.10;47.10
6986;DHT22;3533;51.246;6.850;2023-04-24T07:52:08;19.20;47.10
6986;DHT22;3533;51.246;6.850;2023-04-24T07:54:34;19.10;47.10
6986;DHT22;3533;51.246;6.850;2023-04-24T07:56:59;19.10;47.10
6986;DHT22;3533;51.246;6.850;2023-04-24T07:59:26;19.10;47.10
6986;DHT22;3533;51.246;6.850;2023-04-24T08:01:51;19.10;47.10
6986;DHT22;3533;51.246;6.850;2023-04-24T08:04:17;19.10;47.10
6986;DHT22;3533;51.246;6.850;2023-04-24T08:06:43;19.10;47.10
6986;DHT22;3533;51.246;6.850;2023-04-24T08:09:09;19.10;47.00
6986;DHT22;3533;51.246;6.850;2023-04-24T08:11:35;19.10;47.00
6986;DHT22;3533;51.246;6.850;2023-04-24T08:14:00;19.10;47.00
6986;DHT22;3533;51.246;6.850;2023-04-24T08:16:26;19.10;47.00
6986;DHT22;3533;51.246;6.850;2023-04-24T08:18:52;19.10;47.00
6986;DHT22;3533;51.246;6.850;2023-04-24T08:21:18;19.10;47.00
6986;DHT22;3533;51.246;6.850;2023-04-24T08:23:47;19.10;47.10
6986;DHT22;3533;51.246;6.850;2023-04-24T08:26:13;19.10;47.10
6986;DHT22;3533;51.246;6.850;2023-04-24T08:28:39;19.10;47.00
6986;DHT22;3533;51.246;6.850;2023-04-24T08:31:04;19.10;47.00
6986;DHT22;3533;51.246;6.850;2023-04-24T08:33:30;19.10;47.10
6986;DHT22;3533;51.246;6.850;2023-04-24T08:36:01;19.10;47.10
6986;DHT22;3533;51.246;6.850;2023-04-24T08:38:27;19.10;47.10
6986;DHT22;3533;51.246;6.850;2023-04-24T08:40:52;19.10;47.00
6986;DHT22;3533;51.246;6.850;2023-04-24T08:43:18;19.10;47.10
6986;DHT22;3533;51.246;6.850;2023-04-24T08:45:46;19.10;47.10
6986;DHT22;3533;51.246;6.850;2023-04-24T08:48:12;19.10;47.10
6986;DHT22;3533;51.246;6.850;2023-04-24T08:50:38;19.10;47.10
6986;DHT22;3533;51.246;6.850;2023-04-24T08:53:04;19.10;47.10
6986;DHT22;3533;51.246;6.850;2023-04-24T08:55:32;19.10;47.10
6986;DHT22;3533;51.246;6.850;2023-04-24T08:57:59;19.10;47.10
6986;DHT22;3533;51.246;6.850;2023-04-24T09:00:26;19.10;47.10
6986;DHT22;3533;51.246;6.850;2023-04-24T09:02:52;19.10;47.10
6986;DHT22;3533;51.246;6.850;2023-04-24T09:05:21;19.10;47.10
6986;DHT22;3533;51.246;6.850;2023-04-24T09:07:51;19.10;47.10
6986;DHT22;3533;51.246;6.850;2023-04-24T09:10:18;19.10;47.10
6986;DHT22;3533;51.246;6.850;2023-04-24T09:12:45;19.10;47.10
6986;DHT22;3533;51.246;6.850;2023-04-24T09:15:11;19.10;47.10
6986;DHT22;3533;51.246;6.850;2023-04-24T09:17:37;19.10;47.20
6986;DHT22;3533;51.246;6.850;2023-04-24T09:20:03;19.10;47.20
6986;DHT22;3533;51.246;6.850;2023-04-24T09:22:30;19.10;47.20
6986;DHT22;3533;51.246;6.850;2023-04-24T09:25:03;19.10;47.20
6986;DHT22;3533;51.246;6.850;2023-04-24T09:27:31;19.10;47.20
6986;DHT22;3533;51.246;6.850;2023-04-24T09:29:58;19.10;47.20
6986;DHT22;3533;51.246;6.850;2023-04-24T09:32:24;19.10;47.20
6986;DHT22;3533;51.246;6.850;2023-04-24T09:35:06;19.10;47.20
6986;DHT22;3533;51.246;6.850;2023-04-24T09:37:46;19.10;48.00
6986;DHT22;3533;51.246;6.850;2023-04-24T09:40:13;19.10;47.20
6986;DHT22;3533;51.246;6.850;2023-04-24T09:42:40;19.10;47.20
6986;DHT22;3533;51.246;6.850;2023-04-24T09:45:09;19.10;47.20
6986;DHT22;3533;51.246;6.850;2023-04-24T09:47:39;19.10;47.20
6986;DHT22;3533;51.246;6.850;2023-04-24T09:50:16;19.10;47.30
6986;DHT22;3533;51.246;6.850;2023-04-24T09:52:47;19.10;47.20
6986;DHT22;3533;51.246;6.850;2023-04-24T09:55:21;19.10;47.20
6986;DHT22;3533;51.246;6.850;2023-04-24T09:57:51;19.10;47.20
6986;DHT22;3533;51.246;6.850;2023-04-24T10:00:25;19.10;47.20
6986;DHT22;3533;51.246;6.850;2023-04-24T10:03:01;19.10;47.20
6986;DHT22;3533;51.246;6.850;2023-04-24T10:05:29;19.10;47.20
6986;DHT22;3533;51.246;6.850;2023-04-24T10:08:11;19.10;47.10
6986;DHT22;3533;51.246;6.850;2023-04-24T10:10:39;19.10;47.20
6986;DHT22;3533;51.246;6.850;2023-04-24T10:13:07;19.10;47.20
6986;DHT22;3533;51.246;6.850;2023-04-24T10:15:33;19.10;47.20
6986;DHT22;3533;51.246;6.850;2023-04-24T10:17:59;19.10;47.20
6986;DHT22;3533;51.246;6.850;2023-04-24T10:20:27;19.10;47.20
6986;DHT22;3533;51.246;6.850;2023-04-24T10:22:55;19.10;47.20
6986;DHT22;3533;51.246;6.850;2023-04-24T10:25:29;19.10;47.10
6986;DHT22;3533;51.246;6.850;2023-04-24T10:27:56;19.10;47.20
6986;DHT22;3533;51.246;6.850;2023-04-24T10:30:26;19.10;47.20
6986;DHT22;3533;51.246;6.850;2023-04-24T10:32:52;19.10;47.20
6986;DHT22;3533;51.246;6.850;2023-04-24T10:35:18;19.10;47.20
6986;DHT22;3533;51.246;6.850;2023-04-24T10:38:03;19.10;47.90
6986;DHT22;3533;51.246;6.850;2023-04-24T10:40:34;19.10;47.20
6986;DHT22;3533;51.246;6.850;2023-04-24T10:43:03;19.10;47.10
6986;DHT22;3533;51.246;6.850;2023-04-24T10:45:31;19.10;47.20
6986;DHT22;3533;51.246;6.850;2023-04-24T10:48:09;19.10;47.10
6986;DHT22;3533;51.246;6.850;2023-04-24T10:50:47;19.10;47.10
6986;DHT22;3533;51.246;6.850;2023-04-24T10:53:19;19.10;47.20
6986;DHT22;3533;51.246;6.850;2023-04-24T10:55:51;19.10;47.10
6986;DHT22;3533;51.246;6.850;2023-04-24T10:58:40;19.10;47.10
6986;DHT22;3533;51.246;6.850;2023-04-24T11:01:06;19.10;47.10
6986;DHT22;3533;51.246;6.850;2023-04-24T11:03:34;19.10;47.10
6986;DHT22;3533;51.246;6.850;2023-04-24T11:06:06;19.10;47.10
6986;DHT22;3533;51.246;6.850;2023-04-24T11:11:15;19.10;47.10
6986;DHT22;3533;51.246;6.850;2023-04-24T11:19:08;19.10;47.10
6986;DHT22;3533;51.246;6.850;2023-04-24T11:21:47;19.10;47.10
6986;DHT22;3533;51.246;6.850;2023-04-24T11:24:32;19.10;47.10
6986;DHT22;3533;51.246;6.850;2023-04-24T11:27:05;19.10;47.10
6986;DHT22;3533;51.246;6.850;2023-04-24T11:32:38;19.10;47.10
6986;DHT22;3533;51.246;6.850;2023-04-24T11:37:40;19.10;47.10
6986;DHT22;3533;51.246;6.850;2023-04-24T11:40:08;19.10;47.10
6986;DHT22;3533;51.246;6.850;2023-04-24T11:42:42;19.10;47.10
6986;DHT22;3533;51.246;6.850;2023-04-24T11:45:13;19.10;47.10
6986;DHT22;3533;51.246;6.850;2023-04-24T11:47:39;19.10;47.10
6986;DHT22;3533;51.246;6.850;2023-04-24T11:50:07;19.10;47.10
6986;DHT22;3533;51.246;6.850;2023-04-24T11:52:36;19.10;47.10
6986;DHT22;3533;51.246;6.850;2023-04-24T11:55:02;19.10;47.10
6986;DHT22;3533;51.246;6.850;2023-04-24T11:57:29;19.10;47.20
6986;DHT22;3533;51.246;6.850;2023-04-24T11:59:59;19.10;47.10
6986;DHT22;3533;51.246;6.850;2023-04-24T12:02:26;19.10;47.10
6986;DHT22;3533;51.246;6.850;2023-04-24T12:04:55;19.10;47.10
6986;DHT22;3533;51.246;6.850;2023-04-24T12:07:22;19.20;47.20
6986;DHT22;3533;51.246;6.850;2023-04-24T12:09:56;19.10;47.00
6986;DHT22;3533;51.246;6.850;2023-04-24T12:12:25;19.10;47.00
6986;DHT22;3533;51.246;6.850;2023-04-24T12:14:58;19.20;47.10
6986;DHT22;3533;51.246;6.850;2023-04-24T12:17:29;19.20;47.10
6986;DHT22;3533;51.246;6.850;2023-04-24T12:20:07;19.20;47.90
6986;DHT22;3533;51.246;6.850;2023-04-24T12:25:15;19.10;47.10
6986;DHT22;3533;51.246;6.850;2023-04-24T12:27:40;19.20;47.10
6986;DHT22;3533;51.246;6.850;2023-04-24T12:30:13;19.20;47.10
6986;DHT22;3533;51.246;6.850;2023-04-24T12:32:58;19.20;47.10
6986;DHT22;3533;51.246;6.850;2023-04-24T12:35:30;19.20;47.10
6986;DHT22;3533;51.246;6.850;2023-04-24T12:38:08;19.10;47.80
6986;DHT22;3533;51.246;6.850;2023-04-24T12:40:34;19.20;47.10
6986;DHT22;3533;51.246;6.850;2023-04-24T12:43:00;19.20;47.10
6986;DHT22;3533;51.246;6.850;2023-04-24T12:45:26;19.20;47.10
6986;DHT22;3533;51.246;6.850;2023-04-24T12:47:53;19.20;47.10
6986;DHT22;3533;51.246;6.850;2023-04-24T12:50:19;19.20;47.10
6986;DHT22;3533;51.246;6.850;2023-04-24T12:52:45;19.20;47.10
6986;DHT22;3533;51.246;6.850;2023-04-24T12:55:10;19.20;47.00
6986;DHT22;3533;51.246;6.850;2023-04-24T12:57:38;19.20;47.00
6986;DHT22;3533;51.246;6.850;2023-04-24T13:00:06;19.20;47.00
6986;DHT22;3533;51.246;6.850;2023-04-24T13:02:33;19.20;47.00
6986;DHT22;3533;51.246;6.850;2023-04-24T13:04:59;19.20;47.00
6986;DHT22;3533;51.246;6.850;2023-04-24T13:07:26;19.20;47.00
6986;DHT22;3533;51.246;6.850;2023-04-24T13:09:52;19.20;47.00
6986;DHT22;3533;51.246;6.850;2023-04-24T13:12:18;19.20;47.00
6986;DHT22;3533;51.246;6.850;2023-04-24T13:14:44;19.20;47.00
6986;DHT22;3533;51.246;6.850;2023-04-24T13:17:10;19.20;46.90
6986;DHT22;3533;51.246;6.850;2023-04-24T13:19:38;19.20;46.90
6986;DHT22;3533;51.246;6.850;2023-04-24T13:22:05;19.20;47.00
6986;DHT22;3533;51.246;6.850;2023-04-24T13:24:31;19.20;46.90
6986;DHT22;3533;51.246;6.850;2023-04-24T13:26:57;19.20;46.90
6986;DHT22;3533;51.246;6.850;2023-04-24T13:29:23;19.20;46.90
6986;DHT22;3533;51.246;6.850;2023-04-24T13:31:53;19.20;46.90
6986;DHT22;3533;51.246;6.850;2023-04-24T13:34:25;19.20;46.80
6986;DHT22;3533;51.246;6.850;2023-04-24T13:36:55;19.20;46.80
6986;DHT22;3533;51.246;6.850;2023-04-24T13:39:22;19.20;46.80
6986;DHT22;3533;51.246;6.850;2023-04-24T13:41:48;19.20;46.90
6986;DHT22;3533;51.246;6.850;2023-04-24T13:44:14;19.20;46.90
6986;DHT22;3533;51.246;6.850;2023-04-24T13:46:41;19.20;46.90
6986;DHT22;3533;51.246;6.850;2023-04-24T13:49:07;19.20;46.90
6986;DHT22;3533;51.246;6.850;2023-04-24T13:51:33;19.20;46.90
6986;DHT22;3533;51.246;6.850;2023-04-24T13:53:58;19.20;46.90
6986;DHT22;3533;51.246;6.850;2023-04-24T13:56:25;19.20;46.80
6986;DHT22;3533;51.246;6.850;2023-04-24T13:58:51;19.20;46.90
6986;DHT22;3533;51.246;6.850;2023-04-24T14:01:17;19.20;46.90
6986;DHT22;3533;51.246;6.850;2023-04-24T14:03:42;19.20;46.80
6986;DHT22;3533;51.246;6.850;2023-04-24T14:06:11;19.20;46.80
6986;DHT22;3533;51.246;6.850;2023-04-24T14:08:36;19.20;46.80
6986;DHT22;3533;51.246;6.850;2023-04-24T14:11:02;19.20;46.90
6986;DHT22;3533;51.246;6.850;2023-04-24T14:13:28;19.20;46.80
6986;DHT22;3533;51.246;6.850;2023-04-24T14:15:54;19.20;46.90
6986;DHT22;3533;51.246;6.850;2023-04-24T14:18:20;19.20;46.80
6986;DHT22;3533;51.246;6.850;2023-04-24T14:20:45;19.20;46.90
6986;DHT22;3533;51.246;6.850;2023-04-24T14:23:11;19.20;46.80
6986;DHT22;3533;51.246;6.850;2023-04-24T14:25:36;19.20;46.80
6986;DHT22;3533;51.246;6.850;2023-04-24T14:28:02;19.20;46.90
6986;DHT22;3533;51.246;6.850;2023-04-24T14:30:28;19.20;46.80
6986;DHT22;3533;51.246;6.850;2023-04-24T14:32:53;19.20;46.80
6986;DHT22;3533;51.246;6.850;2023-04-24T14:35:19;19.20;46.80
6986;DHT22;3533;51.246;6.850;2023-04-24T14:37:44;19.20;46.80
6986;DHT22;3533;51.246;6.850;2023-04-24T14:40:10;19.20;46.80
6986;DHT22;3533;51.246;6.850;2023-04-24T14:42:36;19.20;46.80
6986;DHT22;3533;51.246;6.850;2023-04-24T14:45:02;19.20;46.80
6986;DHT22;3533;51.246;6.850;2023-04-24T14:47:27;19.20;46.80
6986;DHT22;3533;51.246;6.850;2023-04-24T14:49:54;19.20;46.80
6986;DHT22;3533;51.246;6.850;2023-04-24T14:52:20;19.20;46.80
6986;DHT22;3533;51.246;6.850;2023-04-24T14:54:45;19.20;46.80
6986;DHT22;3533;51.246;6.850;2023-04-24T14:57:11;19.20;46.80
6986;DHT22;3533;51.246;6.850;2023-04-24T14:59:36;19.20;46.80
6986;DHT22;3533;51.246;6.850;2023-04-24T15:02:02;19.20;46.80
6986;DHT22;3533;51.246;6.850;2023-04-24T15:04:28;19.20;46.80
6986;DHT22;3533;51.246;6.850;2023-04-24T15:06:54;19.20;46.80
6986;DHT22;3533;51.246;6.850;2023-04-24T15:09:21;19.20;46.80
6986;DHT22;3533;51.246;6.850;2023-04-24T15:11:48;19.20;46.80
6986;DHT22;3533;51.246;6.850;2023-04-24T15:14:14;19.20;46.80
6986;DHT22;3533;51.246;6.850;2023-04-24T15:16:40;19.20;46.80
6986;DHT22;3533;51.246;6.850;2023-04-24T15:19:05;19.20;46.80
6986;DHT22;3533;51.246;6.850;2023-04-24T15:21:31;19.20;46.80
6986;DHT22;3533;51.246;6.850;2023-04-24T15:23:57;19.20;46.80
6986;DHT22;3533;51.246;6.850;2023-04-24T15:26:23;19.20;46.90
6986;DHT22;3533;51.246;6.850;2023-04-24T15:28:49;19.10;46.80
6986;DHT22;3533;51.246;6.850;2023-04-24T15:31:15;19.10;46.80
6986;DHT22;3533;51.246;6.850;2023-04-24T15:33:40;19.10;46.90
6986;DHT22;3533;51.246;6.850;2023-04-24T15:36:06;19.10;46.90
6986;DHT22;3533;51.246;6.850;2023-04-24T15:38:32;19.10;46.90
6986;DHT22;3533;51.246;6.850;2023-04-24T15:40:57;19.10;46.90
6986;DHT22;3533;51.246;6.850;2023-04-24T15:43:23;19.10;46.90
6986;DHT22;3533;51.246;6.850;2023-04-24T15:45:52;19.10;46.90
6986;DHT22;3533;51.246;6.850;2023-04-24T15:48:18;19.10;46.80
6986;DHT22;3533;51.246;6.850;2023-04-24T15:50:44;19.10;46.80
6986;DHT22;3533;51.246;6.850;2023-04-24T15:53:09;19.10;46.80
6986;DHT22;3533;51.246;6.850;2023-04-24T15:55:35;19.10;46.80
6986;DHT22;3533;51.246;6.850;2023-04-24T15:58:02;19.10;46.70
6986;DHT22;3533;51.246;6.850;2023-04-24T16:00:27;19.10;46.70
6986;DHT22;3533;51.246;6.850;2023-04-24T16:02:59;19.10;46.70
6986;DHT22;3533;51.246;6.850;2023-04-24T16:05:24;19.10;46.70
6986;DHT22;3533;51.246;6.850;2023-04-24T16:07:50;19.10;46.60
6986;DHT22;3533;51.246;6.850;2023-04-24T16:10:16;19.10;46.60
6986;DHT22;3533;51.246;6.850;2023-04-24T16:12:41;19.10;46.60
6986;DHT22;3533;51.246;6.850;2023-04-24T16:15:07;19.10;46.60
6986;DHT22;3533;51.246;6.850;2023-04-24T16:17:33;19.10;46.60